Current Weather

Joliet Rgnl

Joliet, Illinois (KJOT)

Report from: Thursday, August 18, 2022 11:35 PM CDT
Current time: Friday, August 19, 2022 12:15 AM CDT

Nearby weather
Weather history
Weather forecast

Temperature18.5°C (65.3°F)
Dew point16.6°C (61.9°F)
Winds Calm
Visibility10 mi. (16.1 km)
Clouds Sky clear
Altimeter29.96 in.Hg (1015 mB)
Relative humidity89 %
Density altitude626 ft. (191 m)
Remarks Fully automated report
Automated weather observing station with precipitation discriminator
Flight conditions Visual Meteorological Conditions
Raw dataKJOT 190435Z AUTO 00000KT 10SM CLR 19/17 A2996 RMK AO2 T01850166
An unhandled exception has occurred. See browser dev tools for details. Reload 🗙